首页
METAR-TAF:

METAR-TAF

机场 :

阿根廷港, 福克兰群岛

纬度: 51-49S, 经度: 058-27W, 海拔: 74米

当前天气观测

该预报发布于35分钟前的20:50 UTC
风速8节,风向西
温度 5°C
湿度 81%
气压 997 hPa
能见度10公里或以上
少量云层高于1200英尺

METAR: EGYP 182050Z 28008KT 9999 FEW012 05/02 Q0997 BLU NOSIG

时间: 18:25 (21:25 UTC)

预报

该预报发布于24分钟前的21:01 UTC
预报有效从18日的 21点(UTC)到 19日的 15点(UTC)
风速15节,风向北转西北,有时为25节阵风
能见度10公里或以上
少量云层高于1200英尺
成为
从 18日的 22点(UTC)到 19日的 01点(UTC)
风速17节,风向西转西北,有时为27节阵风
成为
从 19日的 01点(UTC)到 19日的 03点(UTC)
风速12节,风向西北
几率 30% :
短暂存在
从 19日的 07点(UTC)到 19日的 10点(UTC)
散云层高于1800英尺
小阵雨
几率 30% :
短暂存在
从 19日的 10点(UTC)到 19日的 15点(UTC)
能見度: 4000
散云层高于1400英尺, 积雨云.
阵雨

TAF: EGYP 182101Z 1821/1915 33015G25KT 9999 FEW012 520003 BECMG 1822/1901 30017G27KT 50//// BECMG 1901/1903 31012KT PROB30 TEMPO 1907/1910 -SHRA SCT018 PROB30 TEMPO 1910/1915 4000 SHRA SCT014CB

超过4000个机场的气象观测和天气预报(METAR&TAF报告)。

可查询的气象台以黄色和红色小点在地图上表示。

将鼠标移到小点上方,可查看气象台名称。

然后点击查看天气观测和预报。

如需切换地图:点击带黑十字的绿色按钮放大地图;点击带横线的绿色按钮缩小地图;或者点击绿色箭头查看邻近地区的地图。


METAR-TAF: